sensor_id;sensor_type;location;lat;lon;timestamp;pressure;altitude;pressure_sealevel;temperature;humidity
60920;BME280;59039;52.108;19.942;2023-04-20T00:01:10;100978.90;;;8.72;85.70
60920;BME280;59039;52.108;19.942;2023-04-20T00:03:44;100983.98;;;8.71;85.73
60920;BME280;59039;52.108;19.942;2023-04-20T00:08:49;100979.73;;;8.72;85.51
60920;BME280;59039;52.108;19.942;2023-04-20T00:11:16;100977.36;;;8.72;85.65
60920;BME280;59039;52.108;19.942;2023-04-20T00:13:42;100972.96;;;8.74;85.75
60920;BME280;59039;52.108;19.942;2023-04-20T00:16:10;100976.00;;;8.74;85.82
60920;BME280;59039;52.108;19.942;2023-04-20T00:18:36;100972.75;;;8.74;85.74
60920;BME280;59039;52.108;19.942;2023-04-20T00:21:11;100973.86;;;8.73;85.80
60920;BME280;59039;52.108;19.942;2023-04-20T00:23:42;100972.05;;;8.74;85.79
60920;BME280;59039;52.108;19.942;2023-04-20T00:26:13;100968.87;;;8.73;85.78
60920;BME280;59039;52.108;19.942;2023-04-20T00:28:40;100966.58;;;8.72;85.75
60920;BME280;59039;52.108;19.942;2023-04-20T00:31:08;100963.95;;;8.71;85.90
60920;BME280;59039;52.108;19.942;2023-04-20T00:33:34;100967.48;;;8.70;85.82
60920;BME280;59039;52.108;19.942;2023-04-20T00:35:59;100970.21;;;8.70;85.78
60920;BME280;59039;52.108;19.942;2023-04-20T00:38:45;100966.23;;;8.70;85.77
60920;BME280;59039;52.108;19.942;2023-04-20T00:41:11;100963.20;;;8.69;85.60
60920;BME280;59039;52.108;19.942;2023-04-20T00:43:47;100964.15;;;8.69;85.64
60920;BME280;59039;52.108;19.942;2023-04-20T00:46:33;100961.54;;;8.67;85.55
60920;BME280;59039;52.108;19.942;2023-04-20T00:48:59;100963.05;;;8.67;85.50
60920;BME280;59039;52.108;19.942;2023-04-20T00:51:24;100962.90;;;8.66;85.48
60920;BME280;59039;52.108;19.942;2023-04-20T00:53:50;100962.23;;;8.66;85.53
60920;BME280;59039;52.108;19.942;2023-04-20T00:56:15;100959.77;;;8.65;85.43
60920;BME280;59039;52.108;19.942;2023-04-20T00:58:41;100962.35;;;8.65;85.51
60920;BME280;59039;52.108;19.942;2023-04-20T01:01:07;100967.13;;;8.63;85.48
60920;BME280;59039;52.108;19.942;2023-04-20T01:03:33;100965.98;;;8.62;85.42
60920;BME280;59039;52.108;19.942;2023-04-20T01:05:59;100967.68;;;8.61;85.42
60920;BME280;59039;52.108;19.942;2023-04-20T01:08:28;100965.20;;;8.61;85.17
60920;BME280;59039;52.108;19.942;2023-04-20T01:10:58;100965.49;;;8.60;85.06
60920;BME280;59039;52.108;19.942;2023-04-20T01:13:34;100966.71;;;8.58;85.49
60920;BME280;59039;52.108;19.942;2023-04-20T01:16:00;100965.66;;;8.55;85.32
60920;BME280;59039;52.108;19.942;2023-04-20T01:18:25;100965.84;;;8.53;85.31
60920;BME280;59039;52.108;19.942;2023-04-20T01:23:39;100961.23;;;8.50;85.06
60920;BME280;59039;52.108;19.942;2023-04-20T01:29:00;100964.13;;;8.47;84.67
60920;BME280;59039;52.108;19.942;2023-04-20T01:31:26;100962.30;;;8.46;84.61
60920;BME280;59039;52.108;19.942;2023-04-20T01:33:56;100963.92;;;8.44;84.78
60920;BME280;59039;52.108;19.942;2023-04-20T01:36:22;100962.14;;;8.41;84.33
60920;BME280;59039;52.108;19.942;2023-04-20T01:38:50;100956.20;;;8.38;84.53
60920;BME280;59039;52.108;19.942;2023-04-20T01:41:16;100958.20;;;8.36;84.31
60920;BME280;59039;52.108;19.942;2023-04-20T01:43:41;100957.11;;;8.33;84.26
60920;BME280;59039;52.108;19.942;2023-04-20T01:46:12;100956.36;;;8.32;84.29
60920;BME280;59039;52.108;19.942;2023-04-20T01:48:38;100958.49;;;8.30;83.87
60920;BME280;59039;52.108;19.942;2023-04-20T01:51:23;100959.39;;;8.28;84.04
60920;BME280;59039;52.108;19.942;2023-04-20T01:53:51;100959.11;;;8.25;84.02
60920;BME280;59039;52.108;19.942;2023-04-20T01:56:19;100957.41;;;8.24;84.09
60920;BME280;59039;52.108;19.942;2023-04-20T01:58:48;100957.20;;;8.22;83.94
60920;BME280;59039;52.108;19.942;2023-04-20T02:01:16;100955.82;;;8.19;83.79
60920;BME280;59039;52.108;19.942;2023-04-20T02:03:51;100961.81;;;8.16;83.96
60920;BME280;59039;52.108;19.942;2023-04-20T02:06:16;100962.36;;;8.14;83.96
60920;BME280;59039;52.108;19.942;2023-04-20T02:08:41;100962.90;;;8.11;83.89
60920;BME280;59039;52.108;19.942;2023-04-20T02:11:12;100962.83;;;8.08;83.64
60920;BME280;59039;52.108;19.942;2023-04-20T02:14:07;100964.05;;;8.04;83.38
60920;BME280;59039;52.108;19.942;2023-04-20T02:16:33;100963.70;;;8.00;83.13
60920;BME280;59039;52.108;19.942;2023-04-20T02:19:11;100961.75;;;7.97;83.68
60920;BME280;59039;52.108;19.942;2023-04-20T02:21:42;100966.87;;;7.94;83.37
60920;BME280;59039;52.108;19.942;2023-04-20T02:24:08;100970.77;;;7.92;83.33
60920;BME280;59039;52.108;19.942;2023-04-20T02:26:33;100969.02;;;7.90;83.01
60920;BME280;59039;52.108;19.942;2023-04-20T02:28:58;100972.51;;;7.87;82.91
60920;BME280;59039;52.108;19.942;2023-04-20T02:31:24;100970.98;;;7.83;83.07
60920;BME280;59039;52.108;19.942;2023-04-20T02:34:12;100972.70;;;7.80;83.22
60920;BME280;59039;52.108;19.942;2023-04-20T02:36:41;100974.33;;;7.75;82.66
60920;BME280;59039;52.108;19.942;2023-04-20T02:39:08;100972.36;;;7.70;82.86
60920;BME280;59039;52.108;19.942;2023-04-20T02:44:15;100973.38;;;7.62;82.76
60920;BME280;59039;52.108;19.942;2023-04-20T02:46:54;100974.52;;;7.59;82.72
60920;BME280;59039;52.108;19.942;2023-04-20T02:49:25;100982.04;;;7.55;83.04
60920;BME280;59039;52.108;19.942;2023-04-20T02:51:54;100986.80;;;7.52;82.84
60920;BME280;59039;52.108;19.942;2023-04-20T02:54:19;100983.83;;;7.48;82.71
60920;BME280;59039;52.108;19.942;2023-04-20T02:56:47;100984.98;;;7.45;82.73
60920;BME280;59039;52.108;19.942;2023-04-20T02:59:18;100982.70;;;7.40;82.53
60920;BME280;59039;52.108;19.942;2023-04-20T03:01:46;100981.45;;;7.35;82.38
60920;BME280;59039;52.108;19.942;2023-04-20T03:04:14;100980.95;;;7.30;82.28
60920;BME280;59039;52.108;19.942;2023-04-20T03:06:43;100984.58;;;7.25;82.34
60920;BME280;59039;52.108;19.942;2023-04-20T03:09:08;100985.40;;;7.22;82.30
60920;BME280;59039;52.108;19.942;2023-04-20T03:11:34;100982.13;;;7.20;82.72
60920;BME280;59039;52.108;19.942;2023-04-20T03:14:08;100982.38;;;7.17;82.47
60920;BME280;59039;52.108;19.942;2023-04-20T03:16:33;100981.24;;;7.13;82.24
60920;BME280;59039;52.108;19.942;2023-04-20T03:19:01;100977.86;;;7.07;82.41
60920;BME280;59039;52.108;19.942;2023-04-20T03:21:26;100982.40;;;7.02;82.18
60920;BME280;59039;52.108;19.942;2023-04-20T03:23:58;100983.64;;;7.00;82.70
60920;BME280;59039;52.108;19.942;2023-04-20T03:26:23;100986.78;;;6.97;82.11
60920;BME280;59039;52.108;19.942;2023-04-20T03:28:58;100986.98;;;6.94;82.29
60920;BME280;59039;52.108;19.942;2023-04-20T03:31:23;100990.98;;;6.91;82.80
60920;BME280;59039;52.108;19.942;2023-04-20T03:33:58;100989.75;;;6.88;82.69
60920;BME280;59039;52.108;19.942;2023-04-20T03:36:29;100992.78;;;6.86;82.87
60920;BME280;59039;52.108;19.942;2023-04-20T03:38:58;100990.52;;;6.85;82.99
60920;BME280;59039;52.108;19.942;2023-04-20T03:41:23;100991.29;;;6.85;82.99
60920;BME280;59039;52.108;19.942;2023-04-20T03:43:49;100990.78;;;6.82;83.03
60920;BME280;59039;52.108;19.942;2023-04-20T03:46:14;100991.73;;;6.79;83.25
60920;BME280;59039;52.108;19.942;2023-04-20T03:48:40;100995.33;;;6.74;83.11
60920;BME280;59039;52.108;19.942;2023-04-20T03:51:11;100999.45;;;6.70;82.77
60920;BME280;59039;52.108;19.942;2023-04-20T03:53:37;101001.10;;;6.67;83.00
60920;BME280;59039;52.108;19.942;2023-04-20T03:56:11;101001.96;;;6.62;83.35
60920;BME280;59039;52.108;19.942;2023-04-20T03:58:36;101000.14;;;6.58;83.36
60920;BME280;59039;52.108;19.942;2023-04-20T04:55:43;101027.53;;;6.73;86.32
60920;BME280;59039;52.108;19.942;2023-04-20T04:58:11;101021.89;;;6.76;86.29
60920;BME280;59039;52.108;19.942;2023-04-20T05:00:36;101025.64;;;6.79;86.51
60920;BME280;59039;52.108;19.942;2023-04-20T05:03:35;101023.89;;;6.82;86.59
60920;BME280;59039;52.108;19.942;2023-04-20T05:06:03;101030.05;;;6.87;86.70
60920;BME280;59039;52.108;19.942;2023-04-20T05:08:32;101027.78;;;6.91;86.73
60920;BME280;59039;52.108;19.942;2023-04-20T05:10:57;101028.43;;;6.94;86.78
60920;BME280;59039;52.108;19.942;2023-04-20T05:13:29;101035.83;;;6.99;86.83
60920;BME280;59039;52.108;19.942;2023-04-20T05:15:57;101033.61;;;7.02;86.81
60920;BME280;59039;52.108;19.942;2023-04-20T05:18:23;101031.94;;;7.05;86.69
60920;BME280;59039;52.108;19.942;2023-04-20T05:23:36;101031.80;;;7.13;86.99
60920;BME280;59039;52.108;19.942;2023-04-20T05:26:04;101037.35;;;7.19;86.98
60920;BME280;59039;52.108;19.942;2023-04-20T05:28:29;101042.59;;;7.23;87.00
60920;BME280;59039;52.108;19.942;2023-04-20T05:30:59;101039.36;;;7.27;87.20
60920;BME280;59039;52.108;19.942;2023-04-20T05:33:27;101044.88;;;7.34;87.43
60920;BME280;59039;52.108;19.942;2023-04-20T05:35:56;101043.87;;;7.39;87.57
60920;BME280;59039;52.108;19.942;2023-04-20T05:38:24;101047.90;;;7.46;87.83
60920;BME280;59039;52.108;19.942;2023-04-20T05:40:53;101048.48;;;7.52;88.00
60920;BME280;59039;52.108;19.942;2023-04-20T05:43:19;101049.22;;;7.59;88.05
60920;BME280;59039;52.108;19.942;2023-04-20T05:45:45;101046.69;;;7.66;88.20
60920;BME280;59039;52.108;19.942;2023-04-20T05:48:13;101048.02;;;7.74;88.28
60920;BME280;59039;52.108;19.942;2023-04-20T05:50:48;101049.08;;;7.83;88.19
60920;BME280;59039;52.108;19.942;2023-04-20T05:53:16;101053.77;;;7.95;88.21
60920;BME280;59039;52.108;19.942;2023-04-20T05:56:10;101057.19;;;8.08;88.07
60920;BME280;59039;52.108;19.942;2023-04-20T05:58:35;101056.17;;;8.23;88.05
60920;BME280;59039;52.108;19.942;2023-04-20T06:01:03;101059.98;;;8.36;88.00
60920;BME280;59039;52.108;19.942;2023-04-20T06:03:29;101060.92;;;8.52;88.02
60920;BME280;59039;52.108;19.942;2023-04-20T06:05:54;101061.13;;;8.67;87.86
60920;BME280;59039;52.108;19.942;2023-04-20T06:08:20;101058.52;;;8.83;88.03
60920;BME280;59039;52.108;19.942;2023-04-20T06:10:45;101061.00;;;8.99;87.01
60920;BME280;59039;52.108;19.942;2023-04-20T06:13:13;101066.11;;;9.16;87.18
60920;BME280;59039;52.108;19.942;2023-04-20T06:15:38;101063.46;;;9.34;87.28
60920;BME280;59039;52.108;19.942;2023-04-20T06:18:07;101060.42;;;9.61;86.32
60920;BME280;59039;52.108;19.942;2023-04-20T06:20:32;101057.86;;;9.96;85.05
60920;BME280;59039;52.108;19.942;2023-04-20T06:22:58;101056.25;;;10.39;86.22
60920;BME280;59039;52.108;19.942;2023-04-20T06:26:04;101059.21;;;10.75;85.38
60920;BME280;59039;52.108;19.942;2023-04-20T06:28:29;101057.33;;;11.11;82.32
60920;BME280;59039;52.108;19.942;2023-04-20T06:31:04;101053.58;;;11.39;83.03
60920;BME280;59039;52.108;19.942;2023-04-20T06:33:38;101054.09;;;11.61;83.03
60920;BME280;59039;52.108;19.942;2023-04-20T06:36:05;101056.46;;;11.80;83.21
60920;BME280;59039;52.108;19.942;2023-04-20T06:38:31;101055.36;;;11.93;82.60
60920;BME280;59039;52.108;19.942;2023-04-20T06:40:56;101060.12;;;12.05;79.70
60920;BME280;59039;52.108;19.942;2023-04-20T06:43:24;101059.95;;;12.14;77.98
60920;BME280;59039;52.108;19.942;2023-04-20T06:45:50;101062.13;;;12.21;80.54
60920;BME280;59039;52.108;19.942;2023-04-20T06:48:18;101063.89;;;12.25;79.60
60920;BME280;59039;52.108;19.942;2023-04-20T06:50:46;101067.63;;;12.34;79.67
60920;BME280;59039;52.108;19.942;2023-04-20T06:53:12;101069.16;;;12.49;80.85
60920;BME280;59039;52.108;19.942;2023-04-20T06:55:37;101065.54;;;12.71;80.08
60920;BME280;59039;52.108;19.942;2023-04-20T06:58:03;101070.23;;;12.86;78.11
60920;BME280;59039;52.108;19.942;2023-04-20T07:00:31;101073.36;;;12.95;77.52
60920;BME280;59039;52.108;19.942;2023-04-20T07:02:56;101072.30;;;13.02;74.27
60920;BME280;59039;52.108;19.942;2023-04-20T07:05:22;101074.27;;;13.06;75.07
60920;BME280;59039;52.108;19.942;2023-04-20T07:07:47;101076.92;;;13.10;74.82
60920;BME280;59039;52.108;19.942;2023-04-20T07:10:22;101078.84;;;13.14;74.62
60920;BME280;59039;52.108;19.942;2023-04-20T07:12:51;101079.52;;;13.21;73.84
60920;BME280;59039;52.108;19.942;2023-04-20T07:15:19;101085.64;;;13.30;75.99
60920;BME280;59039;52.108;19.942;2023-04-20T07:17:45;101080.23;;;13.35;75.42
60920;BME280;59039;52.108;19.942;2023-04-20T07:20:12;101081.16;;;13.44;71.30
60920;BME280;59039;52.108;19.942;2023-04-20T07:22:58;101075.92;;;13.58;70.61
60920;BME280;59039;52.108;19.942;2023-04-20T07:25:23;101077.71;;;13.72;72.39
60920;BME280;59039;52.108;19.942;2023-04-20T07:27:51;101073.68;;;13.83;75.33
60920;BME280;59039;52.108;19.942;2023-04-20T07:30:24;101081.48;;;13.85;71.11
60920;BME280;59039;52.108;19.942;2023-04-20T07:32:49;101084.79;;;13.88;72.22
60920;BME280;59039;52.108;19.942;2023-04-20T07:35:15;101084.71;;;13.98;74.31
60920;BME280;59039;52.108;19.942;2023-04-20T07:37:43;101077.79;;;14.05;73.42
60920;BME280;59039;52.108;19.942;2023-04-20T07:40:11;101074.09;;;14.16;74.44
60920;BME280;59039;52.108;19.942;2023-04-20T07:42:39;101080.76;;;14.28;69.25
60920;BME280;59039;52.108;19.942;2023-04-20T07:45:05;101075.20;;;14.46;70.37
60920;BME280;59039;52.108;19.942;2023-04-20T07:47:32;101074.61;;;14.66;69.49
60920;BME280;59039;52.108;19.942;2023-04-20T07:49:58;101079.36;;;14.89;73.42
60920;BME280;59039;52.108;19.942;2023-04-20T07:52:24;101084.84;;;15.06;71.81
60920;BME280;59039;52.108;19.942;2023-04-20T07:54:49;101081.65;;;15.25;72.43
60920;BME280;59039;52.108;19.942;2023-04-20T07:57:14;101085.20;;;15.41;68.35
60920;BME280;59039;52.108;19.942;2023-04-20T07:59:40;101080.27;;;15.51;68.52
60920;BME280;59039;52.108;19.942;2023-04-20T08:02:06;101087.46;;;15.63;68.33
60920;BME280;59039;52.108;19.942;2023-04-20T08:04:31;101086.85;;;15.66;67.41
60920;BME280;59039;52.108;19.942;2023-04-20T08:06:59;101085.15;;;15.68;68.15
60920;BME280;59039;52.108;19.942;2023-04-20T08:09:24;101084.67;;;15.74;68.88
60920;BME280;59039;52.108;19.942;2023-04-20T08:11:50;101083.81;;;15.81;68.43
60920;BME280;59039;52.108;19.942;2023-04-20T08:14:15;101083.52;;;15.96;67.36
60920;BME280;59039;52.108;19.942;2023-04-20T08:16:54;101080.63;;;16.01;67.65
60920;BME280;59039;52.108;19.942;2023-04-20T08:19:19;101085.11;;;16.05;67.55
60920;BME280;59039;52.108;19.942;2023-04-20T08:21:45;101082.23;;;16.03;66.68
60920;BME280;59039;52.108;19.942;2023-04-20T08:24:10;101086.13;;;15.95;66.21
60920;BME280;59039;52.108;19.942;2023-04-20T08:26:37;101080.80;;;15.89;65.74
60920;BME280;59039;52.108;19.942;2023-04-20T08:29:05;101084.21;;;15.91;66.59
60920;BME280;59039;52.108;19.942;2023-04-20T08:31:31;101087.66;;;15.89;66.50
60920;BME280;59039;52.108;19.942;2023-04-20T08:33:56;101087.36;;;15.86;64.51
60920;BME280;59039;52.108;19.942;2023-04-20T08:36:22;101089.66;;;15.80;63.95
60920;BME280;59039;52.108;19.942;2023-04-20T08:39:03;101088.16;;;15.72;61.43
60920;BME280;59039;52.108;19.942;2023-04-20T08:41:29;101091.55;;;15.71;65.51
60920;BME280;59039;52.108;19.942;2023-04-20T08:43:54;101092.14;;;15.72;66.41
60920;BME280;59039;52.108;19.942;2023-04-20T08:46:20;101095.08;;;15.72;66.59
60920;BME280;59039;52.108;19.942;2023-04-20T08:48:48;101092.74;;;15.70;65.07
60920;BME280;59039;52.108;19.942;2023-04-20T08:51:14;101095.02;;;15.66;63.16
60920;BME280;59039;52.108;19.942;2023-04-20T08:53:40;101097.29;;;15.62;64.78
60920;BME280;59039;52.108;19.942;2023-04-20T08:56:05;101099.07;;;15.62;66.00
60920;BME280;59039;52.108;19.942;2023-04-20T08:58:31;101098.63;;;15.60;64.31
60920;BME280;59039;52.108;19.942;2023-04-20T09:00:57;101099.16;;;15.55;63.77
60920;BME280;59039;52.108;19.942;2023-04-20T09:03:38;101102.21;;;15.51;63.57
60920;BME280;59039;52.108;19.942;2023-04-20T09:06:04;101094.38;;;15.42;62.90
60920;BME280;59039;52.108;19.942;2023-04-20T09:08:38;101091.29;;;15.39;65.46
60920;BME280;59039;52.108;19.942;2023-04-20T09:11:04;101090.70;;;15.39;65.93
60920;BME280;59039;52.108;19.942;2023-04-20T09:13:31;101094.16;;;15.39;65.07
60920;BME280;59039;52.108;19.942;2023-04-20T09:16:07;101092.45;;;15.38;65.00
60920;BME280;59039;52.108;19.942;2023-04-20T09:18:33;101093.44;;;15.32;64.47
60920;BME280;59039;52.108;19.942;2023-04-20T09:21:07;101098.40;;;15.31;66.18
60920;BME280;59039;52.108;19.942;2023-04-20T09:23:37;101099.49;;;15.26;66.30
60920;BME280;59039;52.108;19.942;2023-04-20T09:26:03;101097.05;;;15.23;65.52
60920;BME280;59039;52.108;19.942;2023-04-20T09:28:37;101093.14;;;15.20;66.41
60920;BME280;59039;52.108;19.942;2023-04-20T09:31:02;101095.50;;;15.15;66.42
60920;BME280;59039;52.108;19.942;2023-04-20T09:33:30;101098.13;;;15.15;67.07
60920;BME280;59039;52.108;19.942;2023-04-20T09:36:02;101097.14;;;15.15;66.01
60920;BME280;59039;52.108;19.942;2023-04-20T09:38:28;101091.16;;;15.16;65.29
60920;BME280;59039;52.108;19.942;2023-04-20T09:40:59;101091.45;;;15.19;65.54
60920;BME280;59039;52.108;19.942;2023-04-20T09:43:26;101089.27;;;15.22;66.93
60920;BME280;59039;52.108;19.942;2023-04-20T09:45:55;101087.27;;;15.27;66.90
60920;BME280;59039;52.108;19.942;2023-04-20T09:51:01;101090.73;;;15.37;66.91
60920;BME280;59039;52.108;19.942;2023-04-20T09:56:05;101086.69;;;15.45;66.94
60920;BME280;59039;52.108;19.942;2023-04-20T09:58:31;101082.55;;;15.45;62.79
60920;BME280;59039;52.108;19.942;2023-04-20T10:01:00;101079.71;;;15.48;64.94
60920;BME280;59039;52.108;19.942;2023-04-20T10:03:28;101075.60;;;15.52;66.77
60920;BME280;59039;52.108;19.942;2023-04-20T10:05:57;101075.17;;;15.56;65.17
60920;BME280;59039;52.108;19.942;2023-04-20T10:08:22;101072.70;;;15.60;65.85
60920;BME280;59039;52.108;19.942;2023-04-20T10:10:49;101070.67;;;15.66;64.26
60920;BME280;59039;52.108;19.942;2023-04-20T10:13:19;101067.34;;;15.74;62.52
60920;BME280;59039;52.108;19.942;2023-04-20T10:15:58;101066.71;;;15.82;63.46
60920;BME280;59039;52.108;19.942;2023-04-20T10:18:25;101064.02;;;15.90;62.49
60920;BME280;59039;52.108;19.942;2023-04-20T10:21:03;101058.29;;;15.97;62.96
60920;BME280;59039;52.108;19.942;2023-04-20T10:23:29;101056.05;;;16.05;63.17
60920;BME280;59039;52.108;19.942;2023-04-20T10:25:56;101053.38;;;16.14;60.53
60920;BME280;59039;52.108;19.942;2023-04-20T10:28:24;101049.18;;;16.21;58.11
60920;BME280;59039;52.108;19.942;2023-04-20T10:30:55;101048.48;;;16.30;60.04
60920;BME280;59039;52.108;19.942;2023-04-20T10:33:23;101050.90;;;16.39;58.36
60920;BME280;59039;52.108;19.942;2023-04-20T10:35:53;101044.88;;;16.45;57.89
60920;BME280;59039;52.108;19.942;2023-04-20T10:41:11;101045.75;;;16.54;58.22
60920;BME280;59039;52.108;19.942;2023-04-20T10:43:50;101047.67;;;16.56;54.63
60920;BME280;59039;52.108;19.942;2023-04-20T10:46:20;101046.82;;;16.60;56.26
60920;BME280;59039;52.108;19.942;2023-04-20T10:51:16;101041.81;;;16.62;56.79
60920;BME280;59039;52.108;19.942;2023-04-20T10:53:41;101046.23;;;16.64;58.01
60920;BME280;59039;52.108;19.942;2023-04-20T10:56:07;101045.54;;;16.67;60.73
60920;BME280;59039;52.108;19.942;2023-04-20T10:58:32;101043.18;;;16.68;59.04
60920;BME280;59039;52.108;19.942;2023-04-20T11:01:04;101045.55;;;16.69;59.91
60920;BME280;59039;52.108;19.942;2023-04-20T11:03:38;101037.54;;;16.71;59.83
60920;BME280;59039;52.108;19.942;2023-04-20T11:06:08;101040.79;;;16.73;59.71
60920;BME280;59039;52.108;19.942;2023-04-20T11:08:40;101041.38;;;16.73;56.02
60920;BME280;59039;52.108;19.942;2023-04-20T11:11:27;101040.77;;;16.73;55.70
60920;BME280;59039;52.108;19.942;2023-04-20T11:14:24;101041.89;;;16.73;55.76
60920;BME280;59039;52.108;19.942;2023-04-20T11:19:34;101041.95;;;16.79;56.58
60920;BME280;59039;52.108;19.942;2023-04-20T11:22:00;101038.71;;;16.81;56.79
60920;BME280;59039;52.108;19.942;2023-04-20T11:24:28;101040.77;;;16.81;54.48
60920;BME280;59039;52.108;19.942;2023-04-20T11:26:59;101041.84;;;16.80;54.88
60920;BME280;59039;52.108;19.942;2023-04-20T11:29:42;101037.73;;;16.80;53.49
60920;BME280;59039;52.108;19.942;2023-04-20T11:32:09;101037.13;;;16.84;56.52
60920;BME280;59039;52.108;19.942;2023-04-20T11:34:37;101037.08;;;16.86;54.29
60920;BME280;59039;52.108;19.942;2023-04-20T11:37:06;101032.85;;;16.87;53.82
60920;BME280;59039;52.108;19.942;2023-04-20T11:39:35;101039.36;;;16.88;52.42
60920;BME280;59039;52.108;19.942;2023-04-20T11:42:00;101036.21;;;16.87;47.97
60920;BME280;59039;52.108;19.942;2023-04-20T11:44:29;101035.15;;;16.86;51.53
60920;BME280;59039;52.108;19.942;2023-04-20T11:46:54;101039.55;;;16.86;51.82
60920;BME280;59039;52.108;19.942;2023-04-20T11:51:58;101035.77;;;16.84;53.65
60920;BME280;59039;52.108;19.942;2023-04-20T11:54:24;101029.70;;;16.85;54.82
60920;BME280;59039;52.108;19.942;2023-04-20T11:56:49;101027.45;;;16.87;55.21
60920;BME280;59039;52.108;19.942;2023-04-20T11:59:15;101024.40;;;16.88;52.50
60920;BME280;59039;52.108;19.942;2023-04-20T12:01:53;101021.00;;;16.93;53.52
60920;BME280;59039;52.108;19.942;2023-04-20T12:04:18;101022.51;;;16.95;52.40
60920;BME280;59039;52.108;19.942;2023-04-20T12:06:46;101019.05;;;16.99;52.98
60920;BME280;59039;52.108;19.942;2023-04-20T12:09:17;101018.73;;;17.05;51.90
60920;BME280;59039;52.108;19.942;2023-04-20T12:11:42;101017.94;;;17.10;50.89
60920;BME280;59039;52.108;19.942;2023-04-20T12:14:10;101017.83;;;17.13;52.57
60920;BME280;59039;52.108;19.942;2023-04-20T12:16:36;101016.67;;;17.15;52.27
60920;BME280;59039;52.108;19.942;2023-04-20T12:19:01;101021.32;;;17.17;51.39
60920;BME280;59039;52.108;19.942;2023-04-20T12:21:26;101017.02;;;17.16;52.23
60920;BME280;59039;52.108;19.942;2023-04-20T12:23:52;101015.21;;;17.16;51.40
60920;BME280;59039;52.108;19.942;2023-04-20T12:26:17;101011.88;;;17.16;50.96
60920;BME280;59039;52.108;19.942;2023-04-20T12:28:42;101007.84;;;17.18;53.32
60920;BME280;59039;52.108;19.942;2023-04-20T12:31:08;101009.55;;;17.22;52.22
60920;BME280;59039;52.108;19.942;2023-04-20T12:33:33;101000.43;;;17.26;52.62
60920;BME280;59039;52.108;19.942;2023-04-20T12:35:58;100998.80;;;17.32;50.66
60920;BME280;59039;52.108;19.942;2023-04-20T12:38:27;100997.02;;;17.39;51.14
60920;BME280;59039;52.108;19.942;2023-04-20T12:40:52;101000.02;;;17.46;48.94
60920;BME280;59039;52.108;19.942;2023-04-20T12:43:17;100997.95;;;17.50;49.87
60920;BME280;59039;52.108;19.942;2023-04-20T12:45:43;100991.15;;;17.50;51.37
60920;BME280;59039;52.108;19.942;2023-04-20T12:48:11;100991.22;;;17.51;48.92
60920;BME280;59039;52.108;19.942;2023-04-20T12:50:36;100991.43;;;17.51;47.07
60920;BME280;59039;52.108;19.942;2023-04-20T12:53:01;100986.65;;;17.51;48.44
60920;BME280;59039;52.108;19.942;2023-04-20T12:55:27;100981.48;;;17.51;48.70
60920;BME280;59039;52.108;19.942;2023-04-20T12:57:52;100983.64;;;17.51;46.40
60920;BME280;59039;52.108;19.942;2023-04-20T13:00:18;100973.80;;;17.54;49.35
60920;BME280;59039;52.108;19.942;2023-04-20T13:02:49;100976.50;;;17.56;49.04
60920;BME280;59039;52.108;19.942;2023-04-20T13:05:17;100977.88;;;17.58;48.61
60920;BME280;59039;52.108;19.942;2023-04-20T13:07:42;100977.83;;;17.60;49.24
60920;BME280;59039;52.108;19.942;2023-04-20T13:10:08;100972.00;;;17.63;48.79
60920;BME280;59039;52.108;19.942;2023-04-20T13:12:33;100972.92;;;17.63;47.52
60920;BME280;59039;52.108;19.942;2023-04-20T13:15:08;100972.41;;;17.65;49.93
60920;BME280;59039;52.108;19.942;2023-04-20T13:17:33;100964.91;;;17.68;49.89
60920;BME280;59039;52.108;19.942;2023-04-20T13:19:59;100960.67;;;17.71;46.95
60920;BME280;59039;52.108;19.942;2023-04-20T13:22:24;100956.80;;;17.76;46.36
60920;BME280;59039;52.108;19.942;2023-04-20T13:24:50;100955.91;;;17.81;45.94
60920;BME280;59039;52.108;19.942;2023-04-20T13:27:15;100952.37;;;17.83;48.80
60920;BME280;59039;52.108;19.942;2023-04-20T13:29:41;100953.73;;;17.86;49.55
60920;BME280;59039;52.108;19.942;2023-04-20T13:32:06;100956.23;;;17.93;48.24
60920;BME280;59039;52.108;19.942;2023-04-20T13:34:31;100955.01;;;17.97;49.77
60920;BME280;59039;52.108;19.942;2023-04-20T13:36:56;100955.83;;;18.01;49.94
60920;BME280;59039;52.108;19.942;2023-04-20T13:39:23;100952.77;;;18.03;46.86
60920;BME280;59039;52.108;19.942;2023-04-20T13:41:48;100951.80;;;18.06;49.24
60920;BME280;59039;52.108;19.942;2023-04-20T13:44:13;100950.49;;;18.11;50.47
60920;BME280;59039;52.108;19.942;2023-04-20T13:46:39;100952.31;;;18.14;48.82
60920;BME280;59039;52.108;19.942;2023-04-20T13:49:04;100959.67;;;18.15;44.23
60920;BME280;59039;52.108;19.942;2023-04-20T13:51:29;100956.45;;;18.16;45.61
60920;BME280;59039;52.108;19.942;2023-04-20T13:53:54;100952.94;;;18.15;45.36
60920;BME280;59039;52.108;19.942;2023-04-20T13:56:20;100950.73;;;18.13;42.64
60920;BME280;59039;52.108;19.942;2023-04-20T13:58:47;100952.27;;;18.13;42.92
60920;BME280;59039;52.108;19.942;2023-04-20T14:01:13;100952.06;;;18.13;45.12
60920;BME280;59039;52.108;19.942;2023-04-20T14:03:38;100954.02;;;18.12;46.11
60920;BME280;59039;52.108;19.942;2023-04-20T14:06:04;100958.77;;;18.12;46.87
60920;BME280;59039;52.108;19.942;2023-04-20T14:08:29;100960.43;;;18.12;47.49
60920;BME280;59039;52.108;19.942;2023-04-20T14:11:05;100958.69;;;18.11;45.10
60920;BME280;59039;52.108;19.942;2023-04-20T14:13:30;100954.45;;;18.12;48.81